sensor_id;sensor_type;location;lat;lon;timestamp;temperature;humidity
52167;DHT22;38149;52.666;6.428;2022-07-23T00:00:19;16.70;99.90
52167;DHT22;38149;52.666;6.428;2022-07-23T00:02:45;16.70;99.90
52167;DHT22;38149;52.666;6.428;2022-07-23T00:05:11;16.70;99.90
52167;DHT22;38149;52.666;6.428;2022-07-23T00:07:37;16.70;99.90
52167;DHT22;38149;52.666;6.428;2022-07-23T00:10:04;16.60;99.90
52167;DHT22;38149;52.666;6.428;2022-07-23T00:12:30;16.60;99.90
52167;DHT22;38149;52.666;6.428;2022-07-23T00:14:56;16.50;99.90
52167;DHT22;38149;52.666;6.428;2022-07-23T00:19:48;16.50;99.90
52167;DHT22;38149;52.666;6.428;2022-07-23T00:22:14;16.50;99.90
52167;DHT22;38149;52.666;6.428;2022-07-23T00:24:40;16.50;99.90
52167;DHT22;38149;52.666;6.428;2022-07-23T00:27:05;16.40;99.90
52167;DHT22;38149;52.666;6.428;2022-07-23T00:29:31;16.40;99.90
52167;DHT22;38149;52.666;6.428;2022-07-23T00:31:57;16.40;99.90
52167;DHT22;38149;52.666;6.428;2022-07-23T00:34:23;16.40;99.90
52167;DHT22;38149;52.666;6.428;2022-07-23T00:39:14;16.30;99.90
52167;DHT22;38149;52.666;6.428;2022-07-23T00:41:40;16.30;99.90
52167;DHT22;38149;52.666;6.428;2022-07-23T00:44:22;16.20;99.90
52167;DHT22;38149;52.666;6.428;2022-07-23T00:46:51;16.20;99.90
52167;DHT22;38149;52.666;6.428;2022-07-23T00:49:23;16.20;99.90
52167;DHT22;38149;52.666;6.428;2022-07-23T00:51:50;16.20;99.90
52167;DHT22;38149;52.666;6.428;2022-07-23T00:54:17;16.20;99.90
52167;DHT22;38149;52.666;6.428;2022-07-23T00:56:44;16.10;99.90
52167;DHT22;38149;52.666;6.428;2022-07-23T00:59:11;16.10;99.90
52167;DHT22;38149;52.666;6.428;2022-07-23T01:01:37;16.10;99.90
52167;DHT22;38149;52.666;6.428;2022-07-23T01:04:03;16.10;99.90
52167;DHT22;38149;52.666;6.428;2022-07-23T01:06:31;16.10;99.90
52167;DHT22;38149;52.666;6.428;2022-07-23T01:09:00;16.00;99.90
52167;DHT22;38149;52.666;6.428;2022-07-23T01:28:31;15.80;99.90
52167;DHT22;38149;52.666;6.428;2022-07-23T01:30:56;15.80;99.90
52167;DHT22;38149;52.666;6.428;2022-07-23T01:33:22;15.70;99.90
52167;DHT22;38149;52.666;6.428;2022-07-23T01:35:48;15.60;99.90
52167;DHT22;38149;52.666;6.428;2022-07-23T01:38:14;15.60;99.90
52167;DHT22;38149;52.666;6.428;2022-07-23T01:40:39;15.50;99.90
52167;DHT22;38149;52.666;6.428;2022-07-23T01:43:05;15.50;99.90
52167;DHT22;38149;52.666;6.428;2022-07-23T01:45:31;15.40;99.90
52167;DHT22;38149;52.666;6.428;2022-07-23T01:47:56;15.40;99.90
52167;DHT22;38149;52.666;6.428;2022-07-23T01:50:22;15.40;99.90
52167;DHT22;38149;52.666;6.428;2022-07-23T01:52:48;15.40;99.90
52167;DHT22;38149;52.666;6.428;2022-07-23T01:55:14;15.50;99.90
52167;DHT22;38149;52.666;6.428;2022-07-23T01:57:40;15.40;99.90
52167;DHT22;38149;52.666;6.428;2022-07-23T02:09:51;15.30;99.90
52167;DHT22;38149;52.666;6.428;2022-07-23T02:12:17;15.20;99.90
52167;DHT22;38149;52.666;6.428;2022-07-23T02:14:43;15.10;99.90
52167;DHT22;38149;52.666;6.428;2022-07-23T02:17:08;15.10;99.90
52167;DHT22;38149;52.666;6.428;2022-07-23T02:19:34;15.00;99.90
52167;DHT22;38149;52.666;6.428;2022-07-23T02:22:00;15.00;99.90
52167;DHT22;38149;52.666;6.428;2022-07-23T02:24:26;15.10;99.90
52167;DHT22;38149;52.666;6.428;2022-07-23T02:26:51;14.90;99.90
52167;DHT22;38149;52.666;6.428;2022-07-23T02:29:17;15.10;99.90
52167;DHT22;38149;52.666;6.428;2022-07-23T02:31:43;14.80;99.90
52167;DHT22;38149;52.666;6.428;2022-07-23T02:34:09;14.80;99.90
52167;DHT22;38149;52.666;6.428;2022-07-23T02:36:37;14.90;99.90
52167;DHT22;38149;52.666;6.428;2022-07-23T02:39:04;14.80;99.90
52167;DHT22;38149;52.666;6.428;2022-07-23T02:41:29;14.70;99.90
52167;DHT22;38149;52.666;6.428;2022-07-23T02:43:55;14.60;99.90
52167;DHT22;38149;52.666;6.428;2022-07-23T02:46:21;14.00;99.90
52167;DHT22;38149;52.666;6.428;2022-07-23T02:48:47;14.60;99.90
52167;DHT22;38149;52.666;6.428;2022-07-23T02:51:12;14.60;99.90
52167;DHT22;38149;52.666;6.428;2022-07-23T02:53:38;14.50;99.90
52167;DHT22;38149;52.666;6.428;2022-07-23T02:56:04;14.40;99.90
52167;DHT22;38149;52.666;6.428;2022-07-23T02:58:29;14.70;99.90
52167;DHT22;38149;52.666;6.428;2022-07-23T03:00:55;14.60;99.90
52167;DHT22;38149;52.666;6.428;2022-07-23T03:03:21;14.30;99.90
52167;DHT22;38149;52.666;6.428;2022-07-23T03:05:47;14.40;99.90
52167;DHT22;38149;52.666;6.428;2022-07-23T03:08:13;14.40;99.90
52167;DHT22;38149;52.666;6.428;2022-07-23T03:10:39;14.40;99.90
52167;DHT22;38149;52.666;6.428;2022-07-23T03:13:04;14.30;99.90
52167;DHT22;38149;52.666;6.428;2022-07-23T03:17:56;14.30;99.90
52167;DHT22;38149;52.666;6.428;2022-07-23T03:20:22;14.30;99.90
52167;DHT22;38149;52.666;6.428;2022-07-23T03:22:48;14.20;99.90
52167;DHT22;38149;52.666;6.428;2022-07-23T03:25:13;14.20;99.90
52167;DHT22;38149;52.666;6.428;2022-07-23T03:27:39;14.20;99.90
52167;DHT22;38149;52.666;6.428;2022-07-23T03:30:05;14.20;99.90
52167;DHT22;38149;52.666;6.428;2022-07-23T03:32:32;14.10;99.90
52167;DHT22;38149;52.666;6.428;2022-07-23T03:34:58;14.00;99.90
52167;DHT22;38149;52.666;6.428;2022-07-23T03:39:51;14.00;99.90
52167;DHT22;38149;52.666;6.428;2022-07-23T03:42:16;13.90;99.90
52167;DHT22;38149;52.666;6.428;2022-07-23T03:44:42;14.10;99.90
52167;DHT22;38149;52.666;6.428;2022-07-23T03:47:08;13.90;99.90
52167;DHT22;38149;52.666;6.428;2022-07-23T03:49:34;13.90;99.90
52167;DHT22;38149;52.666;6.428;2022-07-23T03:52:00;13.80;99.90
52167;DHT22;38149;52.666;6.428;2022-07-23T03:54:26;14.00;99.90
52167;DHT22;38149;52.666;6.428;2022-07-23T03:59:18;13.80;99.90
52167;DHT22;38149;52.666;6.428;2022-07-23T04:01:44;14.10;99.90
52167;DHT22;38149;52.666;6.428;2022-07-23T04:04:09;13.90;99.90
52167;DHT22;38149;52.666;6.428;2022-07-23T04:06:35;13.70;99.90
52167;DHT22;38149;52.666;6.428;2022-07-23T04:09:02;13.70;99.90
52167;DHT22;38149;52.666;6.428;2022-07-23T04:11:28;14.20;99.90
52167;DHT22;38149;52.666;6.428;2022-07-23T04:13:54;13.90;99.90
52167;DHT22;38149;52.666;6.428;2022-07-23T04:16:20;14.10;99.90
52167;DHT22;38149;52.666;6.428;2022-07-23T04:18:45;14.00;99.90
52167;DHT22;38149;52.666;6.428;2022-07-23T04:21:11;13.70;99.90
52167;DHT22;38149;52.666;6.428;2022-07-23T04:23:37;14.00;99.90
52167;DHT22;38149;52.666;6.428;2022-07-23T04:33:25;13.60;99.90
52167;DHT22;38149;52.666;6.428;2022-07-23T04:35:50;13.60;99.90
52167;DHT22;38149;52.666;6.428;2022-07-23T04:38:16;13.60;99.90
52167;DHT22;38149;52.666;6.428;2022-07-23T04:40:42;13.60;99.90
52167;DHT22;38149;52.666;6.428;2022-07-23T04:43:08;13.60;99.90
52167;DHT22;38149;52.666;6.428;2022-07-23T04:45:33;13.50;99.90
52167;DHT22;38149;52.666;6.428;2022-07-23T04:47:59;13.60;99.90
52167;DHT22;38149;52.666;6.428;2022-07-23T04:50:25;13.60;99.90
52167;DHT22;38149;52.666;6.428;2022-07-23T04:52:51;13.60;99.90
52167;DHT22;38149;52.666;6.428;2022-07-23T04:55:16;13.60;99.90
52167;DHT22;38149;52.666;6.428;2022-07-23T04:57:42;13.70;99.90
52167;DHT22;38149;52.666;6.428;2022-07-23T05:00:09;13.70;99.90
52167;DHT22;38149;52.666;6.428;2022-07-23T05:07:28;13.90;99.90
52167;DHT22;38149;52.666;6.428;2022-07-23T05:09:53;14.00;99.90
52167;DHT22;38149;52.666;6.428;2022-07-23T05:12:19;14.10;99.90
52167;DHT22;38149;52.666;6.428;2022-07-23T05:14:45;14.20;99.90
52167;DHT22;38149;52.666;6.428;2022-07-23T05:17:10;14.20;99.90
52167;DHT22;38149;52.666;6.428;2022-07-23T05:19:36;14.30;99.90
52167;DHT22;38149;52.666;6.428;2022-07-23T05:22:02;14.40;99.90
52167;DHT22;38149;52.666;6.428;2022-07-23T05:29:20;14.70;99.90
52167;DHT22;38149;52.666;6.428;2022-07-23T05:31:46;14.70;99.90
52167;DHT22;38149;52.666;6.428;2022-07-23T05:34:11;14.80;99.90
52167;DHT22;38149;52.666;6.428;2022-07-23T05:36:37;14.90;99.90
52167;DHT22;38149;52.666;6.428;2022-07-23T05:39:03;14.90;99.90
52167;DHT22;38149;52.666;6.428;2022-07-23T05:58:40;15.60;99.90
52167;DHT22;38149;52.666;6.428;2022-07-23T06:03:32;15.50;99.90
52167;DHT22;38149;52.666;6.428;2022-07-23T06:05:58;15.50;99.90
52167;DHT22;38149;52.666;6.428;2022-07-23T06:10:50;15.70;99.90
52167;DHT22;38149;52.666;6.428;2022-07-23T06:13:18;15.70;99.90
52167;DHT22;38149;52.666;6.428;2022-07-23T06:15:44;15.70;99.90
52167;DHT22;38149;52.666;6.428;2022-07-23T06:18:09;15.80;99.90
52167;DHT22;38149;52.666;6.428;2022-07-23T06:20:35;15.90;99.90
52167;DHT22;38149;52.666;6.428;2022-07-23T06:23:01;15.90;99.90
52167;DHT22;38149;52.666;6.428;2022-07-23T06:25:27;16.00;99.90
52167;DHT22;38149;52.666;6.428;2022-07-23T06:27:53;16.10;99.90
52167;DHT22;38149;52.666;6.428;2022-07-23T06:30:19;16.20;99.90
52167;DHT22;38149;52.666;6.428;2022-07-23T06:32:46;16.30;99.90
52167;DHT22;38149;52.666;6.428;2022-07-23T06:35:13;16.40;99.90
52167;DHT22;38149;52.666;6.428;2022-07-23T06:37:40;16.50;99.90
52167;DHT22;38149;52.666;6.428;2022-07-23T06:40:06;16.50;99.90
52167;DHT22;38149;52.666;6.428;2022-07-23T06:42:32;16.80;99.90
52167;DHT22;38149;52.666;6.428;2022-07-23T06:44:58;17.00;99.90
52167;DHT22;38149;52.666;6.428;2022-07-23T06:47:23;17.10;99.90
52167;DHT22;38149;52.666;6.428;2022-07-23T06:49:49;17.20;99.90
52167;DHT22;38149;52.666;6.428;2022-07-23T06:52:15;17.30;99.90
52167;DHT22;38149;52.666;6.428;2022-07-23T06:57:08;17.50;99.90
52167;DHT22;38149;52.666;6.428;2022-07-23T07:02:06;17.60;99.90
52167;DHT22;38149;52.666;6.428;2022-07-23T07:04:32;17.60;99.90
52167;DHT22;38149;52.666;6.428;2022-07-23T07:14:17;17.80;99.90
52167;DHT22;38149;52.666;6.428;2022-07-23T07:16:43;18.10;99.90
52167;DHT22;38149;52.666;6.428;2022-07-23T07:24:01;18.40;99.90
52167;DHT22;38149;52.666;6.428;2022-07-23T07:26:27;18.30;99.90
52167;DHT22;38149;52.666;6.428;2022-07-23T07:28:53;18.30;99.90
52167;DHT22;38149;52.666;6.428;2022-07-23T07:31:19;18.30;99.90
52167;DHT22;38149;52.666;6.428;2022-07-23T07:36:11;18.50;99.90
52167;DHT22;38149;52.666;6.428;2022-07-23T07:38:39;18.50;99.90
52167;DHT22;38149;52.666;6.428;2022-07-23T07:41:04;18.70;99.90
52167;DHT22;38149;52.666;6.428;2022-07-23T07:43:30;18.70;99.90
52167;DHT22;38149;52.666;6.428;2022-07-23T07:45:56;19.00;99.90
52167;DHT22;38149;52.666;6.428;2022-07-23T07:50:48;19.10;99.90
52167;DHT22;38149;52.666;6.428;2022-07-23T07:53:13;19.10;99.90
52167;DHT22;38149;52.666;6.428;2022-07-23T07:55:39;19.10;99.90
52167;DHT22;38149;52.666;6.428;2022-07-23T07:58:05;19.10;99.90
52167;DHT22;38149;52.666;6.428;2022-07-23T08:02:58;19.50;99.90
52167;DHT22;38149;52.666;6.428;2022-07-23T08:05:26;19.30;99.90
52167;DHT22;38149;52.666;6.428;2022-07-23T08:07:52;18.90;99.90
52167;DHT22;38149;52.666;6.428;2022-07-23T08:10:20;19.00;99.90
52167;DHT22;38149;52.666;6.428;2022-07-23T08:12:50;18.90;99.90
52167;DHT22;38149;52.666;6.428;2022-07-23T08:15:19;19.00;99.90
52167;DHT22;38149;52.666;6.428;2022-07-23T08:17:46;19.00;99.90
52167;DHT22;38149;52.666;6.428;2022-07-23T08:20:15;19.10;99.90
52167;DHT22;38149;52.666;6.428;2022-07-23T08:22:53;18.90;99.90
52167;DHT22;38149;52.666;6.428;2022-07-23T08:27:52;18.90;99.90
52167;DHT22;38149;52.666;6.428;2022-07-23T08:30:19;18.90;99.90
52167;DHT22;38149;52.666;6.428;2022-07-23T08:32:54;19.60;99.90
52167;DHT22;38149;52.666;6.428;2022-07-23T08:35:36;18.90;99.90
52167;DHT22;38149;52.666;6.428;2022-07-23T08:38:08;18.90;99.90
52167;DHT22;38149;52.666;6.428;2022-07-23T08:40:38;19.20;99.90
52167;DHT22;38149;52.666;6.428;2022-07-23T08:43:08;19.10;99.90
52167;DHT22;38149;52.666;6.428;2022-07-23T08:45:42;19.00;99.90
52167;DHT22;38149;52.666;6.428;2022-07-23T08:48:15;19.10;99.90
52167;DHT22;38149;52.666;6.428;2022-07-23T08:50:48;19.40;99.90
52167;DHT22;38149;52.666;6.428;2022-07-23T08:53:17;18.80;99.90
52167;DHT22;38149;52.666;6.428;2022-07-23T08:55:49;19.20;99.90
52167;DHT22;38149;52.666;6.428;2022-07-23T08:58:17;19.20;99.90
52167;DHT22;38149;52.666;6.428;2022-07-23T09:00:43;19.20;99.90
52167;DHT22;38149;52.666;6.428;2022-07-23T09:03:23;19.30;99.90
52167;DHT22;38149;52.666;6.428;2022-07-23T09:05:51;19.30;99.90
52167;DHT22;38149;52.666;6.428;2022-07-23T09:08:19;19.40;99.90
52167;DHT22;38149;52.666;6.428;2022-07-23T09:10:58;19.40;99.90
52167;DHT22;38149;52.666;6.428;2022-07-23T09:13:50;19.50;99.90
52167;DHT22;38149;52.666;6.428;2022-07-23T09:16:29;19.50;99.90
52167;DHT22;38149;52.666;6.428;2022-07-23T09:19:01;19.50;99.90
52167;DHT22;38149;52.666;6.428;2022-07-23T09:24:12;19.50;99.90
52167;DHT22;38149;52.666;6.428;2022-07-23T09:26:42;19.50;99.90
52167;DHT22;38149;52.666;6.428;2022-07-23T09:29:11;18.60;99.90
52167;DHT22;38149;52.666;6.428;2022-07-23T09:32:00;19.70;99.90
52167;DHT22;38149;52.666;6.428;2022-07-23T09:37:15;19.20;99.90
52167;DHT22;38149;52.666;6.428;2022-07-23T09:39:46;20.30;99.90
52167;DHT22;38149;52.666;6.428;2022-07-23T09:42:24;20.10;99.90
52167;DHT22;38149;52.666;6.428;2022-07-23T09:44:55;20.00;99.90
52167;DHT22;38149;52.666;6.428;2022-07-23T09:47:24;20.10;99.90
52167;DHT22;38149;52.666;6.428;2022-07-23T09:57:42;20.40;99.90
52167;DHT22;38149;52.666;6.428;2022-07-23T11:09:56;21.70;99.90
52167;DHT22;38149;52.666;6.428;2022-07-23T11:17:35;22.00;99.90
52167;DHT22;38149;52.666;6.428;2022-07-23T11:27:49;22.20;99.90
52167;DHT22;38149;52.666;6.428;2022-07-23T11:30:38;22.30;99.90
52167;DHT22;38149;52.666;6.428;2022-07-23T11:35:48;22.30;99.90
52167;DHT22;38149;52.666;6.428;2022-07-23T11:38:23;22.40;99.90
52167;DHT22;38149;52.666;6.428;2022-07-23T11:40:54;22.40;99.90
52167;DHT22;38149;52.666;6.428;2022-07-23T11:43:22;22.40;99.90
52167;DHT22;38149;52.666;6.428;2022-07-23T11:45:50;22.40;99.90
52167;DHT22;38149;52.666;6.428;2022-07-23T11:48:24;22.40;99.90
52167;DHT22;38149;52.666;6.428;2022-07-23T11:50:52;22.40;99.90
52167;DHT22;38149;52.666;6.428;2022-07-23T11:53:26;22.50;99.90
52167;DHT22;38149;52.666;6.428;2022-07-23T11:55:54;22.40;99.90
52167;DHT22;38149;52.666;6.428;2022-07-23T11:58:30;22.30;99.90
52167;DHT22;38149;52.666;6.428;2022-07-23T12:08:23;22.60;99.90
52167;DHT22;38149;52.666;6.428;2022-07-23T12:10:49;22.70;99.90
52167;DHT22;38149;52.666;6.428;2022-07-23T12:13:17;22.80;99.90
52167;DHT22;38149;52.666;6.428;2022-07-23T12:15:47;23.10;99.90
52167;DHT22;38149;52.666;6.428;2022-07-23T12:18:17;22.90;99.90
52167;DHT22;38149;52.666;6.428;2022-07-23T12:20:46;22.80;99.90
52167;DHT22;38149;52.666;6.428;2022-07-23T12:23:15;23.10;99.90
52167;DHT22;38149;52.666;6.428;2022-07-23T12:25:44;23.00;99.90
52167;DHT22;38149;52.666;6.428;2022-07-23T12:30:58;23.20;99.90
52167;DHT22;38149;52.666;6.428;2022-07-23T12:33:29;23.10;99.90
52167;DHT22;38149;52.666;6.428;2022-07-23T12:36:01;22.80;99.90
52167;DHT22;38149;52.666;6.428;2022-07-23T12:38:43;23.20;99.90
52167;DHT22;38149;52.666;6.428;2022-07-23T12:41:12;23.20;99.90
52167;DHT22;38149;52.666;6.428;2022-07-23T12:43:40;23.40;99.90
52167;DHT22;38149;52.666;6.428;2022-07-23T12:46:13;23.10;99.90
52167;DHT22;38149;52.666;6.428;2022-07-23T12:51:19;24.00;99.90
52167;DHT22;38149;52.666;6.428;2022-07-23T12:53:51;23.00;99.90
52167;DHT22;38149;52.666;6.428;2022-07-23T12:56:21;23.50;99.90
52167;DHT22;38149;52.666;6.428;2022-07-23T13:04:15;23.70;99.90
52167;DHT22;38149;52.666;6.428;2022-07-23T13:09:29;23.40;99.90
52167;DHT22;38149;52.666;6.428;2022-07-23T13:11:57;24.00;99.90
52167;DHT22;38149;52.666;6.428;2022-07-23T13:14:24;24.00;99.90
52167;DHT22;38149;52.666;6.428;2022-07-23T13:16:52;24.00;99.90
52167;DHT22;38149;52.666;6.428;2022-07-23T13:19:19;24.20;99.90
52167;DHT22;38149;52.666;6.428;2022-07-23T13:21:47;24.10;99.90
52167;DHT22;38149;52.666;6.428;2022-07-23T13:24:13;24.10;99.90
52167;DHT22;38149;52.666;6.428;2022-07-23T13:26:39;24.20;99.90
52167;DHT22;38149;52.666;6.428;2022-07-23T13:29:06;24.30;99.90
52167;DHT22;38149;52.666;6.428;2022-07-23T13:31:32;24.50;99.90
52167;DHT22;38149;52.666;6.428;2022-07-23T13:33:58;24.40;99.90
52167;DHT22;38149;52.666;6.428;2022-07-23T13:36:24;24.40;99.90
52167;DHT22;38149;52.666;6.428;2022-07-23T13:38:50;24.40;99.90
52167;DHT22;38149;52.666;6.428;2022-07-23T13:43:45;24.50;99.90
52167;DHT22;38149;52.666;6.428;2022-07-23T13:46:11;24.60;99.90
52167;DHT22;38149;52.666;6.428;2022-07-23T13:48:37;24.70;99.90
52167;DHT22;38149;52.666;6.428;2022-07-23T13:51:02;24.60;99.90
52167;DHT22;38149;52.666;6.428;2022-07-23T13:53:28;24.20;99.90
52167;DHT22;38149;52.666;6.428;2022-07-23T13:55:54;24.60;99.90
52167;DHT22;38149;52.666;6.428;2022-07-23T13:58:21;24.90;99.90
52167;DHT22;38149;52.666;6.428;2022-07-23T14:00:50;24.60;99.90
52167;DHT22;38149;52.666;6.428;2022-07-23T14:03:17;24.80;99.90
52167;DHT22;38149;52.666;6.428;2022-07-23T14:05:44;24.90;99.90
52167;DHT22;38149;52.666;6.428;2022-07-23T14:08:10;24.40;99.90
52167;DHT22;38149;52.666;6.428;2022-07-23T14:13:04;24.80;99.90
52167;DHT22;38149;52.666;6.428;2022-07-23T14:15:31;24.90;99.90
52167;DHT22;38149;52.666;6.428;2022-07-23T14:17:58;25.00;99.90
52167;DHT22;38149;52.666;6.428;2022-07-23T14:22:51;25.20;99.90
52167;DHT22;38149;52.666;6.428;2022-07-23T14:27:43;25.40;99.90
52167;DHT22;38149;52.666;6.428;2022-07-23T15:01:56;26.20;97.80
52167;DHT22;38149;52.666;6.428;2022-07-23T15:04:22;26.50;99.80
52167;DHT22;38149;52.666;6.428;2022-07-23T15:06:48;26.30;99.90
52167;DHT22;38149;52.666;6.428;2022-07-23T15:09:14;26.30;98.40
52167;DHT22;38149;52.666;6.428;2022-07-23T15:11:40;26.20;98.40
52167;DHT22;38149;52.666;6.428;2022-07-23T15:14:06;26.30;98.00
52167;DHT22;38149;52.666;6.428;2022-07-23T15:16:34;26.50;98.10
52167;DHT22;38149;52.666;6.428;2022-07-23T15:19:00;26.30;98.50
52167;DHT22;38149;52.666;6.428;2022-07-23T15:21:27;26.30;97.60
52167;DHT22;38149;52.666;6.428;2022-07-23T15:23:55;26.20;97.60
52167;DHT22;38149;52.666;6.428;2022-07-23T15:26:27;26.10;97.50
52167;DHT22;38149;52.666;6.428;2022-07-23T15:28:54;26.10;97.50
52167;DHT22;38149;52.666;6.428;2022-07-23T15:31:20;26.20;97.70
52167;DHT22;38149;52.666;6.428;2022-07-23T15:33:46;26.20;97.70
52167;DHT22;38149;52.666;6.428;2022-07-23T15:36:12;26.50;97.20
52167;DHT22;38149;52.666;6.428;2022-07-23T15:38:38;26.20;97.30
52167;DHT22;38149;52.666;6.428;2022-07-23T15:41:04;26.00;97.30
52167;DHT22;38149;52.666;6.428;2022-07-23T15:43:30;25.80;97.40
52167;DHT22;38149;52.666;6.428;2022-07-23T15:45:56;25.60;98.70
52167;DHT22;38149;52.666;6.428;2022-07-23T15:48:22;26.40;99.90
52167;DHT22;38149;52.666;6.428;2022-07-23T15:50:48;26.20;99.70
52167;DHT22;38149;52.666;6.428;2022-07-23T15:53:14;26.60;99.00
52167;DHT22;38149;52.666;6.428;2022-07-23T15:55:40;26.60;99.90
52167;DHT22;38149;52.666;6.428;2022-07-23T15:58:06;26.40;96.40
52167;DHT22;38149;52.666;6.428;2022-07-23T16:00:33;26.50;96.30
52167;DHT22;38149;52.666;6.428;2022-07-23T16:12:46;27.00;95.50
52167;DHT22;38149;52.666;6.428;2022-07-23T16:15:12;27.00;95.80
52167;DHT22;38149;52.666;6.428;2022-07-23T16:17:37;27.10;96.30
52167;DHT22;38149;52.666;6.428;2022-07-23T16:20:04;27.20;95.90
52167;DHT22;38149;52.666;6.428;2022-07-23T16:22:32;27.30;96.10
52167;DHT22;38149;52.666;6.428;2022-07-23T16:24:58;27.40;96.50
52167;DHT22;38149;52.666;6.428;2022-07-23T16:27:24;27.40;96.60
52167;DHT22;38149;52.666;6.428;2022-07-23T16:29:50;27.40;96.80
52167;DHT22;38149;52.666;6.428;2022-07-23T16:32:16;27.50;98.00
52167;DHT22;38149;52.666;6.428;2022-07-23T16:34:42;27.40;97.70
52167;DHT22;38149;52.666;6.428;2022-07-23T16:37:09;27.40;97.30
52167;DHT22;38149;52.666;6.428;2022-07-23T16:39:36;27.50;97.30
52167;DHT22;38149;52.666;6.428;2022-07-23T16:42:02;27.40;96.60
52167;DHT22;38149;52.666;6.428;2022-07-23T16:44:28;27.30;96.60
52167;DHT22;38149;52.666;6.428;2022-07-23T16:46:54;27.40;96.70
52167;DHT22;38149;52.666;6.428;2022-07-23T16:49:19;27.40;96.60
52167;DHT22;38149;52.666;6.428;2022-07-23T16:51:45;27.40;98.00
52167;DHT22;38149;52.666;6.428;2022-07-23T16:54:11;27.40;97.80
52167;DHT22;38149;52.666;6.428;2022-07-23T16:56:37;27.30;97.30
52167;DHT22;38149;52.666;6.428;2022-07-23T16:59:03;27.30;94.90
52167;DHT22;38149;52.666;6.428;2022-07-23T17:23:25;26.70;99.50
52167;DHT22;38149;52.666;6.428;2022-07-23T17:25:51;26.70;99.90
52167;DHT22;38149;52.666;6.428;2022-07-23T17:28:17;26.50;93.80
52167;DHT22;38149;52.666;6.428;2022-07-23T17:30:43;26.50;93.90
52167;DHT22;38149;52.666;6.428;2022-07-23T17:33:09;26.30;93.80
52167;DHT22;38149;52.666;6.428;2022-07-23T17:35:34;26.20;93.90
52167;DHT22;38149;52.666;6.428;2022-07-23T17:38:00;26.20;93.90
52167;DHT22;38149;52.666;6.428;2022-07-23T17:40:28;26.00;93.90
52167;DHT22;38149;52.666;6.428;2022-07-23T17:52:48;25.90;93.90
52167;DHT22;38149;52.666;6.428;2022-07-23T17:55:17;25.80;94.10
52167;DHT22;38149;52.666;6.428;2022-07-23T17:57:43;25.70;94.00
52167;DHT22;38149;52.666;6.428;2022-07-23T18:00:11;25.70;94.10
52167;DHT22;38149;52.666;6.428;2022-07-23T18:02:38;25.70;94.20
52167;DHT22;38149;52.666;6.428;2022-07-23T18:05:05;25.60;94.30
52167;DHT22;38149;52.666;6.428;2022-07-23T18:07:31;25.60;94.30
52167;DHT22;38149;52.666;6.428;2022-07-23T18:09:57;25.60;94.20
52167;DHT22;38149;52.666;6.428;2022-07-23T18:27:02;25.30;94.50
52167;DHT22;38149;52.666;6.428;2022-07-23T18:29:28;25.30;94.60
52167;DHT22;38149;52.666;6.428;2022-07-23T18:31:54;25.20;94.60
52167;DHT22;38149;52.666;6.428;2022-07-23T18:41:40;25.20;99.90
52167;DHT22;38149;52.666;6.428;2022-07-23T18:44:06;25.30;99.90
52167;DHT22;38149;52.666;6.428;2022-07-23T18:46:32;25.10;99.90
52167;DHT22;38149;52.666;6.428;2022-07-23T18:48:58;25.10;99.90
52167;DHT22;38149;52.666;6.428;2022-07-23T18:51:23;25.20;99.90
52167;DHT22;38149;52.666;6.428;2022-07-23T18:53:49;25.00;99.90
52167;DHT22;38149;52.666;6.428;2022-07-23T18:58:42;25.00;99.90
52167;DHT22;38149;52.666;6.428;2022-07-23T19:01:07;25.00;99.90
52167;DHT22;38149;52.666;6.428;2022-07-23T19:03:37;24.80;99.90
52167;DHT22;38149;52.666;6.428;2022-07-23T19:06:03;24.80;99.90
52167;DHT22;38149;52.666;6.428;2022-07-23T19:18:17;24.50;96.30
52167;DHT22;38149;52.666;6.428;2022-07-23T19:20:43;24.50;96.30
52167;DHT22;38149;52.666;6.428;2022-07-23T19:23:09;24.40;96.40
52167;DHT22;38149;52.666;6.428;2022-07-23T19:25:34;24.40;96.60
52167;DHT22;38149;52.666;6.428;2022-07-23T19:28:00;24.30;96.70
52167;DHT22;38149;52.666;6.428;2022-07-23T19:30:26;24.20;96.80
52167;DHT22;38149;52.666;6.428;2022-07-23T19:32:52;24.20;96.80
52167;DHT22;38149;52.666;6.428;2022-07-23T19:35:18;24.10;97.00
52167;DHT22;38149;52.666;6.428;2022-07-23T19:37:44;24.10;97.10
52167;DHT22;38149;52.666;6.428;2022-07-23T19:40:10;24.00;97.20
52167;DHT22;38149;52.666;6.428;2022-07-23T19:42:37;23.90;97.30
52167;DHT22;38149;52.666;6.428;2022-07-23T19:45:07;23.80;97.10
52167;DHT22;38149;52.666;6.428;2022-07-23T19:47:34;23.90;97.50
52167;DHT22;38149;52.666;6.428;2022-07-23T19:50:00;23.80;97.60
52167;DHT22;38149;52.666;6.428;2022-07-23T19:52:26;23.70;97.80
52167;DHT22;38149;52.666;6.428;2022-07-23T19:54:52;23.60;97.60
52167;DHT22;38149;52.666;6.428;2022-07-23T19:59:44;23.40;98.00
52167;DHT22;38149;52.666;6.428;2022-07-23T20:02:09;23.40;99.70
52167;DHT22;38149;52.666;6.428;2022-07-23T20:04:35;23.40;99.90
52167;DHT22;38149;52.666;6.428;2022-07-23T20:16:46;23.10;98.50
52167;DHT22;38149;52.666;6.428;2022-07-23T20:19:12;23.00;99.00
52167;DHT22;38149;52.666;6.428;2022-07-23T20:21:38;23.00;99.90
52167;DHT22;38149;52.666;6.428;2022-07-23T20:24:10;22.90;99.90
52167;DHT22;38149;52.666;6.428;2022-07-23T20:26:38;22.90;99.90
52167;DHT22;38149;52.666;6.428;2022-07-23T20:29:05;22.80;99.90
52167;DHT22;38149;52.666;6.428;2022-07-23T20:31:31;22.60;99.90
52167;DHT22;38149;52.666;6.428;2022-07-23T20:33:57;22.80;99.90
52167;DHT22;38149;52.666;6.428;2022-07-23T20:36:23;22.70;99.90
52167;DHT22;38149;52.666;6.428;2022-07-23T20:38:48;22.60;99.90
52167;DHT22;38149;52.666;6.428;2022-07-23T20:41:14;22.00;99.90
52167;DHT22;38149;52.666;6.428;2022-07-23T20:43:41;22.40;99.90
52167;DHT22;38149;52.666;6.428;2022-07-23T20:46:08;22.30;99.90
52167;DHT22;38149;52.666;6.428;2022-07-23T20:48:33;22.30;99.90
52167;DHT22;38149;52.666;6.428;2022-07-23T20:53:26;22.10;99.90
52167;DHT22;38149;52.666;6.428;2022-07-23T20:55:52;22.00;99.90
52167;DHT22;38149;52.666;6.428;2022-07-23T21:00:46;22.10;99.90
52167;DHT22;38149;52.666;6.428;2022-07-23T21:03:12;22.30;99.90
52167;DHT22;38149;52.666;6.428;2022-07-23T21:05:40;22.80;99.90
52167;DHT22;38149;52.666;6.428;2022-07-23T21:08:08;21.80;99.90
52167;DHT22;38149;52.666;6.428;2022-07-23T21:13:02;21.90;99.90
52167;DHT22;38149;52.666;6.428;2022-07-23T21:17:54;21.70;99.90
52167;DHT22;38149;52.666;6.428;2022-07-23T21:20:20;21.80;99.90
52167;DHT22;38149;52.666;6.428;2022-07-23T21:22:51;21.40;99.90
52167;DHT22;38149;52.666;6.428;2022-07-23T21:25:17;21.50;99.90
52167;DHT22;38149;52.666;6.428;2022-07-23T21:27:43;21.70;99.90
52167;DHT22;38149;52.666;6.428;2022-07-23T21:30:10;21.40;99.90
52167;DHT22;38149;52.666;6.428;2022-07-23T21:32:37;21.90;99.90